sensor_id;sensor_type;location;lat;lon;timestamp;temperature;humidity
3402;DHT22;1714;49.756;8.610;2023-07-02T00:10:14;18.20;1.00
3402;DHT22;1714;49.756;8.610;2023-07-02T00:20:49;18.10;1.00
3402;DHT22;1714;49.756;8.610;2023-07-02T00:31:25;18.20;1.00
3402;DHT22;1714;49.756;8.610;2023-07-02T00:42:03;18.10;1.00
3402;DHT22;1714;49.756;8.610;2023-07-02T00:52:39;18.00;1.00
3402;DHT22;1714;49.756;8.610;2023-07-02T01:03:14;17.80;1.00
3402;DHT22;1714;49.756;8.610;2023-07-02T01:13:50;17.70;1.00
3402;DHT22;1714;49.756;8.610;2023-07-02T01:24:26;17.60;1.00
3402;DHT22;1714;49.756;8.610;2023-07-02T01:35:02;17.50;1.00
3402;DHT22;1714;49.756;8.610;2023-07-02T01:45:38;17.40;1.00
3402;DHT22;1714;49.756;8.610;2023-07-02T01:56:13;17.20;1.00
3402;DHT22;1714;49.756;8.610;2023-07-02T02:06:48;17.20;1.00
3402;DHT22;1714;49.756;8.610;2023-07-02T02:17:23;17.10;1.00
3402;DHT22;1714;49.756;8.610;2023-07-02T02:27:58;17.00;1.00
3402;DHT22;1714;49.756;8.610;2023-07-02T02:38:33;17.00;1.00
3402;DHT22;1714;49.756;8.610;2023-07-02T02:49:10;16.90;1.00
3402;DHT22;1714;49.756;8.610;2023-07-02T02:59:45;16.80;1.00
3402;DHT22;1714;49.756;8.610;2023-07-02T03:10:21;16.80;1.00
3402;DHT22;1714;49.756;8.610;2023-07-02T03:20:56;16.60;1.00
3402;DHT22;1714;49.756;8.610;2023-07-02T03:31:31;16.70;1.00
3402;DHT22;1714;49.756;8.610;2023-07-02T03:42:07;16.60;1.00
3402;DHT22;1714;49.756;8.610;2023-07-02T03:52:42;16.60;1.00
3402;DHT22;1714;49.756;8.610;2023-07-02T04:03:17;16.50;1.00
3402;DHT22;1714;49.756;8.610;2023-07-02T04:14:05;16.30;1.00
3402;DHT22;1714;49.756;8.610;2023-07-02T04:24:57;16.10;1.00
3402;DHT22;1714;49.756;8.610;2023-07-02T04:35:41;16.30;1.00
3402;DHT22;1714;49.756;8.610;2023-07-02T04:46:16;16.50;1.00
3402;DHT22;1714;49.756;8.610;2023-07-02T04:56:53;16.60;1.00
3402;DHT22;1714;49.756;8.610;2023-07-02T05:07:28;16.80;1.00
3402;DHT22;1714;49.756;8.610;2023-07-02T05:18:02;16.90;1.00
3402;DHT22;1714;49.756;8.610;2023-07-02T05:28:38;17.10;1.00
3402;DHT22;1714;49.756;8.610;2023-07-02T05:39:13;17.10;1.00
3402;DHT22;1714;49.756;8.610;2023-07-02T05:49:48;17.30;1.00
3402;DHT22;1714;49.756;8.610;2023-07-02T06:00:23;17.30;1.00
3402;DHT22;1714;49.756;8.610;2023-07-02T06:10:58;17.40;1.00
3402;DHT22;1714;49.756;8.610;2023-07-02T06:21:33;17.40;1.00
3402;DHT22;1714;49.756;8.610;2023-07-02T06:32:08;17.80;1.00
3402;DHT22;1714;49.756;8.610;2023-07-02T06:42:42;18.00;1.00
3402;DHT22;1714;49.756;8.610;2023-07-02T06:53:18;18.50;1.00
3402;DHT22;1714;49.756;8.610;2023-07-02T07:04:04;18.70;1.00
3402;DHT22;1714;49.756;8.610;2023-07-02T07:14:39;19.20;1.00
3402;DHT22;1714;49.756;8.610;2023-07-02T07:25:14;19.70;1.00
3402;DHT22;1714;49.756;8.610;2023-07-02T07:36:01;20.20;1.00
3402;DHT22;1714;49.756;8.610;2023-07-02T07:46:36;20.90;1.00
3402;DHT22;1714;49.756;8.610;2023-07-02T07:57:11;22.50;1.00
3402;DHT22;1714;49.756;8.610;2023-07-02T08:07:46;21.90;1.00
3402;DHT22;1714;49.756;8.610;2023-07-02T08:18:21;21.50;1.00
3402;DHT22;1714;49.756;8.610;2023-07-02T08:28:56;22.80;1.00
3402;DHT22;1714;49.756;8.610;2023-07-02T08:39:31;22.70;1.00
3402;DHT22;1714;49.756;8.610;2023-07-02T08:50:06;21.80;1.00
3402;DHT22;1714;49.756;8.610;2023-07-02T09:01:08;23.20;1.00
3402;DHT22;1714;49.756;8.610;2023-07-02T09:11:50;24.10;1.00
3402;DHT22;1714;49.756;8.610;2023-07-02T09:22:28;23.10;1.00
3402;DHT22;1714;49.756;8.610;2023-07-02T09:33:06;23.20;1.00
3402;DHT22;1714;49.756;8.610;2023-07-02T09:43:42;24.30;1.00
3402;DHT22;1714;49.756;8.610;2023-07-02T09:54:20;24.90;1.00
3402;DHT22;1714;49.756;8.610;2023-07-02T10:05:09;23.20;1.00
3402;DHT22;1714;49.756;8.610;2023-07-02T10:15:45;25.40;1.00
3402;DHT22;1714;49.756;8.610;2023-07-02T10:26:20;24.90;1.00
3402;DHT22;1714;49.756;8.610;2023-07-02T10:36:55;25.00;1.00
3402;DHT22;1714;49.756;8.610;2023-07-02T10:47:30;24.60;1.00
3402;DHT22;1714;49.756;8.610;2023-07-02T10:58:07;25.40;1.00
3402;DHT22;1714;49.756;8.610;2023-07-02T11:08:42;26.20;1.00
3402;DHT22;1714;49.756;8.610;2023-07-02T11:19:19;26.30;1.00
3402;DHT22;1714;49.756;8.610;2023-07-02T11:30:00;26.00;1.00
3402;DHT22;1714;49.756;8.610;2023-07-02T11:40:35;26.90;1.00
3402;DHT22;1714;49.756;8.610;2023-07-02T11:51:11;26.10;1.00
3402;DHT22;1714;49.756;8.610;2023-07-02T12:01:45;25.70;1.00
3402;DHT22;1714;49.756;8.610;2023-07-02T12:12:20;25.10;1.00
3402;DHT22;1714;49.756;8.610;2023-07-02T12:22:56;24.90;1.00
3402;DHT22;1714;49.756;8.610;2023-07-02T12:33:34;24.90;1.00
3402;DHT22;1714;49.756;8.610;2023-07-02T12:44:09;25.30;1.00
3402;DHT22;1714;49.756;8.610;2023-07-02T12:54:44;24.70;1.00
3402;DHT22;1714;49.756;8.610;2023-07-02T13:05:18;24.70;1.00
3402;DHT22;1714;49.756;8.610;2023-07-02T13:15:53;24.40;1.00
3402;DHT22;1714;49.756;8.610;2023-07-02T13:26:29;25.70;1.00
3402;DHT22;1714;49.756;8.610;2023-07-02T13:37:04;25.40;1.00
3402;DHT22;1714;49.756;8.610;2023-07-02T13:47:39;25.60;1.00
3402;DHT22;1714;49.756;8.610;2023-07-02T13:58:14;25.70;1.00
3402;DHT22;1714;49.756;8.610;2023-07-02T14:09:03;27.00;1.00
3402;DHT22;1714;49.756;8.610;2023-07-02T14:19:38;26.30;1.00
3402;DHT22;1714;49.756;8.610;2023-07-02T14:30:13;25.90;1.00
3402;DHT22;1714;49.756;8.610;2023-07-02T14:40:49;26.50;1.00
3402;DHT22;1714;49.756;8.610;2023-07-02T14:51:24;26.40;1.00
3402;DHT22;1714;49.756;8.610;2023-07-02T15:01:59;26.00;1.00
3402;DHT22;1714;49.756;8.610;2023-07-02T15:12:34;26.20;1.00
3402;DHT22;1714;49.756;8.610;2023-07-02T15:23:09;26.60;1.00
3402;DHT22;1714;49.756;8.610;2023-07-02T15:33:44;25.80;1.00
3402;DHT22;1714;49.756;8.610;2023-07-02T15:44:20;26.50;1.00
3402;DHT22;1714;49.756;8.610;2023-07-02T15:54:55;25.90;1.00
3402;DHT22;1714;49.756;8.610;2023-07-02T16:05:36;25.70;1.00
3402;DHT22;1714;49.756;8.610;2023-07-02T16:16:13;25.70;1.00
3402;DHT22;1714;49.756;8.610;2023-07-02T16:26:49;26.50;1.00
3402;DHT22;1714;49.756;8.610;2023-07-02T16:37:26;25.80;1.00
3402;DHT22;1714;49.756;8.610;2023-07-02T16:48:02;25.60;1.00
3402;DHT22;1714;49.756;8.610;2023-07-02T16:58:38;25.40;1.00
3402;DHT22;1714;49.756;8.610;2023-07-02T17:09:18;25.50;1.00
3402;DHT22;1714;49.756;8.610;2023-07-02T17:19:57;25.00;1.00
3402;DHT22;1714;49.756;8.610;2023-07-02T17:30:32;24.70;1.00
3402;DHT22;1714;49.756;8.610;2023-07-02T17:41:10;24.50;1.00
3402;DHT22;1714;49.756;8.610;2023-07-02T17:51:46;24.30;1.00
3402;DHT22;1714;49.756;8.610;2023-07-02T18:02:23;24.00;1.00
3402;DHT22;1714;49.756;8.610;2023-07-02T18:12:58;23.70;1.00
3402;DHT22;1714;49.756;8.610;2023-07-02T18:23:33;23.60;1.00
3402;DHT22;1714;49.756;8.610;2023-07-02T18:34:08;23.40;1.00
3402;DHT22;1714;49.756;8.610;2023-07-02T18:44:43;23.10;1.00
3402;DHT22;1714;49.756;8.610;2023-07-02T18:55:19;22.70;1.00
3402;DHT22;1714;49.756;8.610;2023-07-02T19:05:54;22.50;1.00
3402;DHT22;1714;49.756;8.610;2023-07-02T19:16:29;22.30;1.00
3402;DHT22;1714;49.756;8.610;2023-07-02T19:27:07;21.90;1.00
3402;DHT22;1714;49.756;8.610;2023-07-02T19:37:42;21.90;1.00
3402;DHT22;1714;49.756;8.610;2023-07-02T19:48:18;21.60;1.00
3402;DHT22;1714;49.756;8.610;2023-07-02T19:58:54;21.30;1.00
3402;DHT22;1714;49.756;8.610;2023-07-02T20:09:29;21.20;1.00
3402;DHT22;1714;49.756;8.610;2023-07-02T20:20:05;21.00;1.00
3402;DHT22;1714;49.756;8.610;2023-07-02T20:30:43;20.80;1.00
3402;DHT22;1714;49.756;8.610;2023-07-02T20:41:19;20.80;1.00
3402;DHT22;1714;49.756;8.610;2023-07-02T20:51:54;20.70;1.00
3402;DHT22;1714;49.756;8.610;2023-07-02T21:02:29;20.70;1.00
3402;DHT22;1714;49.756;8.610;2023-07-02T21:13:04;20.40;1.00
3402;DHT22;1714;49.756;8.610;2023-07-02T21:23:39;20.30;1.00
3402;DHT22;1714;49.756;8.610;2023-07-02T21:34:15;20.10;1.00
3402;DHT22;1714;49.756;8.610;2023-07-02T21:44:51;19.80;1.00
3402;DHT22;1714;49.756;8.610;2023-07-02T21:55:26;19.80;1.00
3402;DHT22;1714;49.756;8.610;2023-07-02T22:06:01;19.60;1.00
3402;DHT22;1714;49.756;8.610;2023-07-02T22:16:36;19.60;1.00
3402;DHT22;1714;49.756;8.610;2023-07-02T22:27:11;19.60;1.00
3402;DHT22;1714;49.756;8.610;2023-07-02T22:37:46;19.50;1.00
3402;DHT22;1714;49.756;8.610;2023-07-02T22:48:22;19.50;1.00
3402;DHT22;1714;49.756;8.610;2023-07-02T22:59:05;19.40;1.00
3402;DHT22;1714;49.756;8.610;2023-07-02T23:10:06;19.50;1.00
3402;DHT22;1714;49.756;8.610;2023-07-02T23:20:56;19.50;1.00
3402;DHT22;1714;49.756;8.610;2023-07-02T23:31:32;19.30;1.00
3402;DHT22;1714;49.756;8.610;2023-07-02T23:42:08;19.30;1.00
3402;DHT22;1714;49.756;8.610;2023-07-02T23:52:44;19.10;1.00
